ARCT2: Red River, ARthur City

Data processed at Tue Jan 22 2019 23:32


All information presented herein is the property of the government of the United States of America and may be revised or deleted at any time without prior notice.
Dissemination of this information without the expressed written consent of the Public Affairs Office, Tulsa District U.S. Army Corps of Engineers is strictly prohibited.
These data are gathered electronically and, as presented, have not undergone any form of quality control. These data are not guaranteed to be valid or correct.
Go to home page.
Go to station list.
Go to home page.

Upstream stations:

Downstream station:
Previous Day
Next Day
Current Day
    
SHEF ID:       ARCT2     Red River at Arthur City, TX
STATION TYPE:  

               PRECIP     STAGE  STAGE(2)  RIV-FLOW  BAT-LOAD
                   in        ft        ft       cfs      volt
              Ccp-Rev   Ccp-Rev   Ccp-Rev   Ccp-Rev   Ccp-Rev
(US/Central)
01/22 00:00      0.00     16.76     16.73     30091     12.57
01/22 01:00      0.00     16.68     16.72     29768     12.57
01/22 02:00      0.00     16.71     16.68     29889     12.49
01/22 03:00      0.00     16.71     16.70     29889     12.49
01/22 04:00      0.00     16.73     16.71     29970     12.49
01/22 05:00      0.00     16.74     16.69     30010     12.49
01/22 06:00      0.00     16.72     16.73     29929     12.41
01/22 07:00      0.00     16.75     16.74     30050     12.41
01/22 08:00      0.00     16.73     16.71     29970     12.41
01/22 09:00      0.00     16.74     16.72     30010     12.41
01/22 10:00      0.00     16.74     16.70     30010     12.49
01/22 11:00      0.00     16.75     16.75     30050     12.81
01/22 12:00      0.01     16.75     16.76     30050     12.81
01/22 13:00      0.00     16.75     16.76     30050     13.05
01/22 14:00      0.03     16.77     16.75     30131     13.05
01/22 15:00      0.02     16.76     16.75     30091     12.97
01/22 16:00      0.03     16.79     16.78     30212     12.97
01/22 17:00      0.03     16.77     16.75     30131     12.81
01/22 18:00      0.23     16.81     16.79     30293     12.65
01/22 19:00      0.07     16.76     16.81     30091     12.57
01/22 20:00      0.01     16.79     16.78     30212     12.57
01/22 21:00      0.06     16.82     16.78     30334     12.57
01/22 22:00      0.01     16.81     16.78     30293     12.49
01/22 23:00      ----      ----      ----      ----     12.41